EDT,Max TemperatureF,Mean TemperatureF,Min TemperatureF,Max Dew PointF,MeanDew PointF,Min DewpointF,Max Humidity, Mean Humidity, Min Humidity, Max Sea Level PressureIn, Mean Sea Level PressureIn, Min Sea Level PressureIn, Max VisibilityMiles, Mean VisibilityMiles, Min VisibilityMiles, Max Wind SpeedMPH, Mean Wind SpeedMPH, Max Gust SpeedMPH,PrecipitationIn, CloudCover, Events, WindDirDegrees
2012-10-1,77,72,66,72,70,64,100,92,78,29.80,29.72,29.66,10,7,1,9,4,,0.00,7,Rain,111
2012-10-2,78,73,66,72,65,61,100,78,54,29.97,29.81,29.68,10,10,2,12,6,18,0.00,5,Rain-Thunderstorm,197
2012-10-3,75,68,62,64,62,59,100,84,61,30.19,30.09,29.98,10,10,7,6,1,,0.00,3,,209
2012-10-4,82,72,62,68,61,54,100,77,39,30.26,30.20,30.16,10,7,0,5,0,,0.00,2,Fog,280
2012-10-5,82,68,55,61,57,52,100,72,35,30.19,30.11,30.01,10,9,2,6,1,,0.00,0,,174
2012-10-6,84,72,59,64,60,55,100,72,37,30.04,29.96,29.89,10,9,2,8,1,,0.00,1,,262
2012-10-7,75,65,55,61,57,52,94,77,53,30.06,29.99,29.94,10,10,10,9,3,,0.00,0,Thunderstorm,279
2012-10-8,60,56,53,55,51,50,94,79,68,30.13,30.08,30.02,10,10,10,6,1,,0.00,8,,23
2012-10-9,69,60,51,54,50,46,94,75,49,30.15,30.09,30.05,10,10,10,7,1,,0.00,5,,340
2012-10-10,73,60,46,55,51,46,100,77,50,30.14,30.10,30.06,10,9,0,12,3,20,0.00,4,Fog,277
2012-10-11,75,62,48,54,49,43,100,70,33,30.27,30.20,30.13,10,9,3,5,0,,0.00,0,,236
2012-10-12,80,66,53,61,56,50,94,71,42,30.23,30.19,30.15,10,10,7,9,1,,0.00,2,,285
2012-10-13,77,68,59,59,53,50,88,67,41,30.36,30.28,30.24,10,10,10,6,1,,0.00,2,,66
2012-10-14,78,66,53,64,59,52,94,77,57,30.26,30.15,30.02,10,10,10,6,1,,0.00,3,,160
2012-10-15,78,68,55,66,57,45,100,73,34,30.01,29.90,29.83,10,9,4,13,5,21,0.00,3,Rain-Thunderstorm,237
2012-10-16,71,58,44,52,46,41,100,66,33,29.98,29.91,29.85,10,10,10,6,1,,0.00,0,,273
2012-10-17,75,63,51,50,46,43,88,60,31,29.96,29.89,29.83,10,10,10,8,2,,0.00,0,,134
2012-10-18,75,65,55,63,59,50,100,83,64,29.88,29.81,29.76,10,10,4,8,4,,0.00,3,Rain,162
2012-10-19,73,60,46,59,40,28,100,52,19,29.84,29.80,29.74,10,10,5,13,2,24,0.00,0,,232
2012-10-20,71,58,44,46,42,37,87,57,33,29.95,29.87,29.81,10,10,10,10,2,17,0.00,0,,258
2012-10-21,73,58,44,48,45,41,93,64,33,30.13,30.07,29.95,10,10,10,7,0,,0.00,0,,65
2012-10-22,78,62,46,54,47,45,93,58,30,30.21,30.15,30.10,10,10,10,5,0,,0.00,0,,130
2012-10-23,80,65,50,52,47,41,88,56,26,30.20,30.13,30.08,10,10,10,6,1,,0.00,0,,132
2012-10-24,80,66,51,59,51,45,94,62,30,30.19,30.11,30.05,10,10,10,6,1,,0.00,0,,110
2012-10-25,82,68,55,61,57,54,94,69,39,30.11,30.05,30.00,10,10,7,9,1,,0.00,2,,80
2012-10-26,82,70,59,61,57,54,100,71,37,30.04,29.96,29.89,10,9,4,6,1,,0.00,0,,25
2012-10-27,77,67,57,59,55,50,82,69,47,29.89,29.77,29.70,10,10,10,8,3,,0.00,1,,336
2012-10-28,68,57,46,52,47,37,94,75,52,29.76,29.72,29.67,10,10,10,13,5,20,0.00,3,,282
2012-10-29,60,51,42,37,34,28,76,56,34,29.77,29.73,29.66,10,10,10,22,9,36,0.00,0,,289
2012-10-30,59,52,44,30,25,19,57,39,22,29.75,29.65,29.60,10,10,10,16,9,29,0.00,2,,268
2012-10-31,64,52,41,30,25,18,65,40,18,29.84,29.80,29.75,10,10,10,15,6,23,0.00,0,,260